• Join FlightAware (Why Join?)
  • Login
  • US Flag 
02:24AM EDT


 

Airport Tracker/Info


-or-


 

Live Flight TrackerFlight Track Log ✈ N236WR ✈ 07-May-2013 ✈ KGRR - KPWK

Flight Track Log - Related Links

Times and Time Zones

All times are in EDT time to prevent confusion due to time zone crossing. See the N236WR flight status page for this flight to view local times or setup timezone preferences in your user account.

Time Position Orientation Groundspeed Altitude Reporting Facility
EDT Latitude Longitude Course Direction KTS MPH feet Rate Location/Type
01:18PM 42.8944 -85.3728 257° West 177 204 4,000  Level Chicago Center
01:19PM 42.8456 -85.3706 178° South 221 254 4,900 1,380 Climbing Chicago Center
01:20PM 42.8322 -85.4444 256° West 208 239 6,900 2,040 Climbing Chicago Center
01:21PM 42.8167 -85.5267 256° West 191 220 9,200 1,500 Climbing Chicago Center
01:22PM 42.8320 -85.6915 257° West  Level FlightAware Approximate
01:22PM 42.8028 -85.6000 256° West 194 223 10,000  Level Chicago Center
01:23PM 42.8271 -85.7209 257° West  Level FlightAware Approximate
01:23PM 42.7850 -85.6928 255° West 239 275 10,000  Level Chicago Center
01:24PM 42.7656 -85.7869 254° West 256 295 10,000  Level Chicago Center
01:25PM 42.7467 -85.8839 255° West 262 302 10,000  Level Chicago Center
01:26PM 42.7278 -85.9800 255° West 262 302 10,000  Level Chicago Center
01:27PM 42.7083 -86.0764 255° West 263 303 10,000  Level Chicago Center
01:28PM 42.6856 -86.1917 255° West 262 302 10,000  Level Chicago Center
01:29PM 42.6664 -86.2867 255° West 261 300 10,000  Level Chicago Center
01:30PM 42.6469 -86.3808 254° West 260 299 10,000  Level Chicago Center
01:31PM 42.6264 -86.4769 254° West 263 303 10,000  Level Chicago Center
01:32PM 42.6078 -86.5719 255° West 262 302 10,000  Level Chicago Center
01:33PM 42.5883 -86.6683 255° West 264 304 10,000 -300 Level Chicago Center
01:34PM 42.5686 -86.7642 254° West 265 305 9,400 -840 Descending Chicago Center
01:35PM 42.5450 -86.8800 255° West 265 305 8,300 -1,020 Descending Chicago Center
01:36PM 42.5264 -86.9728 255° West 257 296 7,300 -1,020 Descending Chicago Center
01:37PM 42.5067 -87.0617 253° West 248 285 6,300 -960 Descending Chicago Center
01:38PM 42.4858 -87.1497 252° West 246 283 5,400 -960 Descending Chicago Center
01:40PM 42.4553 -87.2325 243° Southwest 246 283 4,400 -960 Descending Chicago Center
01:41PM 42.4286 -87.3156 247° West 243 280 3,500 -720 Descending Chicago Center
01:42PM 42.3964 -87.4197 247° West 247 284 3,000 -240 Descending Chicago Center
01:43PM 42.3606 -87.5317 247° West 253 291 3,000  Level Chicago Center
01:44PM 42.3281 -87.6264 245° Southwest 234 269 3,000  Level Chicago Center
01:45PM 42.3042 -87.7011 247° West 229 264 3,000  Level Chicago Center
01:46PM 42.2944 -87.7714 259° West 210 242 3,000  Level Chicago Center
01:47PM 42.2889 -87.8414 264° West 196 226 3,000  Level Chicago Center
01:48PM 42.2833 -87.9092 264° West 190 219 3,000 -180 Level Chicago Center
01:49PM 42.2511 -87.9658 232° Southwest 192 221 2,700 -360 Descending Chicago Center
01:50PM 42.2075 -87.9533 168° South 173 199 2,300 -300 Descending Chicago Center
01:51PM 42.1719 -87.9342 158° South 166 191 2,100 -240 Descending Chicago Center
01:54PM 42.1143 -87.9015 166° South  Level Estimated